createdAt,value
2022-12-12T00:02:14.205Z,2.60
2022-12-12T00:04:59.635Z,2.90
2022-12-12T00:07:45.400Z,2.35
2022-12-12T00:10:30.820Z,2.42
2022-12-12T00:13:16.604Z,2.65
2022-12-12T00:16:02.062Z,2.45
2022-12-12T00:18:47.559Z,2.50
2022-12-12T00:21:33.059Z,2.50
2022-12-12T00:24:18.428Z,2.50
2022-12-12T00:27:03.943Z,2.60
2022-12-12T00:29:55.687Z,2.50
2022-12-12T00:32:41.229Z,2.70
2022-12-12T00:35:27.055Z,2.90
2022-12-12T00:38:12.833Z,2.50
2022-12-12T00:41:00.304Z,2.45
2022-12-12T00:43:46.182Z,2.50
2022-12-12T00:46:31.907Z,2.92
2022-12-12T00:49:17.687Z,2.95
2022-12-12T00:52:03.687Z,2.42
2022-12-12T00:54:49.127Z,2.67
2022-12-12T00:57:34.438Z,2.58
2022-12-12T01:00:21.320Z,2.85
2022-12-12T01:03:07.019Z,2.53
2022-12-12T01:05:52.769Z,2.50
2022-12-12T01:08:39.060Z,2.72
2022-12-12T01:11:26.247Z,2.70
2022-12-12T01:14:11.975Z,2.58
2022-12-12T01:16:57.521Z,2.70
2022-12-12T01:19:42.933Z,2.08
2022-12-12T01:22:28.529Z,2.58
2022-12-12T01:25:15.473Z,2.50
2022-12-12T01:28:01.347Z,2.97
2022-12-12T01:30:47.146Z,2.47
2022-12-12T01:33:33.163Z,2.80
2022-12-12T01:36:21.983Z,2.45
2022-12-12T01:39:07.993Z,2.90
2022-12-12T01:41:53.526Z,2.65
2022-12-12T01:44:48.971Z,2.55
2022-12-12T01:47:34.486Z,2.47
2022-12-12T01:50:20.194Z,2.65
2022-12-12T01:53:05.651Z,2.65
2022-12-12T01:55:51.270Z,2.55
2022-12-12T01:58:37.037Z,2.40
2022-12-12T02:01:24.105Z,2.72
2022-12-12T02:04:11.491Z,2.75
2022-12-12T02:06:57.574Z,2.85
2022-12-12T02:09:43.356Z,2.35
2022-12-12T02:12:29.151Z,2.75
2022-12-12T02:15:14.870Z,2.70
2022-12-12T02:18:30.255Z,2.58
2022-12-12T02:21:18.997Z,2.67
2022-12-12T02:24:41.788Z,2.50
2022-12-12T02:27:27.227Z,2.75
2022-12-12T02:30:22.319Z,2.65
2022-12-12T02:33:29.354Z,2.25
2022-12-12T02:36:33.467Z,2.85
2022-12-12T02:39:37.101Z,2.42
2022-12-12T02:42:42.059Z,2.50
2022-12-12T02:45:35.117Z,2.42
2022-12-12T02:48:33.222Z,2.15
2022-12-12T02:51:20.933Z,2.60
2022-12-12T02:54:14.831Z,2.50
2022-12-12T02:57:01.982Z,2.60
2022-12-12T03:00:01.448Z,2.38
2022-12-12T03:03:18.939Z,2.63
2022-12-12T03:06:39.385Z,2.75
2022-12-12T03:09:51.381Z,2.20
2022-12-12T03:13:04.240Z,2.88
2022-12-12T03:16:09.600Z,2.53
2022-12-12T03:19:28.656Z,2.72
2022-12-12T03:22:42.201Z,2.38
2022-12-12T03:25:41.374Z,2.35
2022-12-12T03:28:35.000Z,2.63
2022-12-12T03:31:28.167Z,2.50
2022-12-12T03:34:25.464Z,2.25
2022-12-12T03:37:18.999Z,2.40
2022-12-12T03:40:11.399Z,2.60
2022-12-12T03:43:05.265Z,2.40
2022-12-12T03:46:01.418Z,2.33
2022-12-12T03:49:02.310Z,2.50
2022-12-12T03:51:54.675Z,2.40
2022-12-12T03:54:57.103Z,2.60
2022-12-12T03:58:01.754Z,2.35
2022-12-12T04:00:50.587Z,2.55
2022-12-12T04:04:03.113Z,2.22
2022-12-12T04:06:59.563Z,2.53
2022-12-12T04:10:04.326Z,2.47
2022-12-12T04:13:08.011Z,2.20
2022-12-12T04:16:03.568Z,2.33
2022-12-12T04:19:42.246Z,2.72
2022-12-12T04:22:55.106Z,2.40
2022-12-12T04:26:16.479Z,2.23
2022-12-12T04:29:14.476Z,2.33
2022-12-12T04:32:29.272Z,2.28
2022-12-12T04:35:20.011Z,2.42
2022-12-12T04:38:16.007Z,2.53
2022-12-12T04:41:04.822Z,2.20
2022-12-12T04:43:51.830Z,2.60
2022-12-12T04:46:38.916Z,2.30
2022-12-12T04:49:28.992Z,2.47
2022-12-12T04:52:16.882Z,2.15
2022-12-12T04:55:09.307Z,2.28
2022-12-12T04:57:55.869Z,2.45
2022-12-12T05:00:48.855Z,2.20
2022-12-12T05:03:56.400Z,2.47
2022-12-12T05:06:49.984Z,2.53
2022-12-12T05:09:36.648Z,2.38
2022-12-12T05:12:22.552Z,2.23
2022-12-12T05:15:08.969Z,2.50
2022-12-12T05:18:03.130Z,2.90
2022-12-12T05:20:49.466Z,2.50
2022-12-12T05:23:35.215Z,2.65
2022-12-12T05:26:27.146Z,2.35
2022-12-12T05:29:12.708Z,2.20
2022-12-12T05:31:58.233Z,2.50
2022-12-12T05:34:43.747Z,2.70
2022-12-12T05:37:29.204Z,2.20
2022-12-12T05:40:14.616Z,2.35
2022-12-12T05:43:00.067Z,2.20
2022-12-12T05:45:45.697Z,2.38
2022-12-12T05:48:31.131Z,2.65
2022-12-12T05:51:18.176Z,2.40
2022-12-12T05:54:04.187Z,2.40
2022-12-12T05:56:49.946Z,2.40
2022-12-12T05:59:35.885Z,2.27
2022-12-12T06:02:21.402Z,2.37
2022-12-12T06:05:07.205Z,2.93
2022-12-12T06:07:52.671Z,2.97
2022-12-12T06:10:38.285Z,2.70
2022-12-12T06:13:24.150Z,3.10
2022-12-12T06:16:14.468Z,2.90
2022-12-12T06:19:00.190Z,2.83
2022-12-12T06:21:45.860Z,3.10
2022-12-12T06:24:31.902Z,3.60
2022-12-12T06:27:17.466Z,3.30
2022-12-12T06:30:04.705Z,3.13
2022-12-12T06:32:50.274Z,3.00
2022-12-12T06:35:35.779Z,3.30
2022-12-12T06:38:21.367Z,3.10
2022-12-12T06:41:12.661Z,3.40
2022-12-12T06:43:58.353Z,3.35
2022-12-12T06:46:44.465Z,3.40
2022-12-12T06:49:30.043Z,3.38
2022-12-12T06:52:15.544Z,3.70
2022-12-12T06:55:01.116Z,3.80
2022-12-12T06:57:46.544Z,3.27
2022-12-12T07:00:32.160Z,3.57
2022-12-12T07:03:17.689Z,3.47
2022-12-12T07:06:03.886Z,3.00
2022-12-12T07:08:50.598Z,3.50
2022-12-12T07:11:36.379Z,2.80
2022-12-12T07:14:22.129Z,3.28
2022-12-12T07:17:07.747Z,3.37
2022-12-12T07:19:53.086Z,3.23
2022-12-12T07:22:38.732Z,3.03
2022-12-12T07:25:24.150Z,2.90
2022-12-12T07:28:10.918Z,2.77
2022-12-12T07:30:56.425Z,2.90
2022-12-12T07:33:44.515Z,2.80
2022-12-12T07:36:30.275Z,2.73
2022-12-12T07:39:20.798Z,2.75
2022-12-12T07:42:06.821Z,2.63
2022-12-12T07:44:53.334Z,2.83
2022-12-12T07:47:38.820Z,2.37
2022-12-12T07:50:24.425Z,2.30
2022-12-12T07:53:10.188Z,2.30
2022-12-12T07:55:56.519Z,2.70
2022-12-12T07:58:42.443Z,2.45
2022-12-12T08:01:29.691Z,2.67
2022-12-12T08:04:15.287Z,2.72
2022-12-12T08:07:05.352Z,2.97
2022-12-12T08:09:52.407Z,2.43
2022-12-12T08:12:38.212Z,2.80
2022-12-12T08:15:23.573Z,2.77
2022-12-12T08:18:09.124Z,2.50
2022-12-12T08:20:54.752Z,2.57
2022-12-12T08:23:41.482Z,2.50
2022-12-12T08:26:28.492Z,2.40
2022-12-12T08:29:13.982Z,2.37
2022-12-12T08:32:01.013Z,2.75
2022-12-12T08:34:47.907Z,2.53
2022-12-12T08:37:33.727Z,2.47
2022-12-12T08:40:19.159Z,2.90
2022-12-12T08:43:04.775Z,2.45
2022-12-12T08:45:50.409Z,2.08
2022-12-12T08:48:35.968Z,2.17
2022-12-12T08:51:21.517Z,2.80
2022-12-12T08:54:07.423Z,2.60
2022-12-12T08:56:53.195Z,2.50
2022-12-12T08:59:38.599Z,2.70
2022-12-12T09:02:24.238Z,2.90
2022-12-12T09:05:09.937Z,2.47
2022-12-12T09:07:55.457Z,2.30
2022-12-12T09:10:42.291Z,2.40
2022-12-12T09:13:28.046Z,2.47
2022-12-12T09:16:14.046Z,2.57
2022-12-12T09:18:59.632Z,2.27
2022-12-12T09:21:46.358Z,2.17
2022-12-12T09:24:32.125Z,2.67
2022-12-12T09:27:17.630Z,2.43
2022-12-12T09:30:03.755Z,2.47
2022-12-12T09:32:49.545Z,2.60
2022-12-12T09:35:35.105Z,2.20
2022-12-12T09:38:21.063Z,2.60
2022-12-12T09:41:09.806Z,2.55
2022-12-12T09:44:03.595Z,2.50
2022-12-12T09:46:57.342Z,2.10
2022-12-12T09:49:52.792Z,2.22
2022-12-12T09:52:38.521Z,2.23
2022-12-12T09:55:50.584Z,2.38
2022-12-12T09:59:11.752Z,2.35
2022-12-12T10:02:05.587Z,1.48
2022-12-12T10:05:17.344Z,2.00
2022-12-12T10:08:09.067Z,2.13
2022-12-12T10:10:59.574Z,1.88
2022-12-12T10:13:45.110Z,1.85
2022-12-12T10:16:32.677Z,1.70
2022-12-12T10:19:22.199Z,2.03
2022-12-12T10:22:25.015Z,1.90
2022-12-12T10:25:39.467Z,1.98
2022-12-12T10:28:28.007Z,2.20
2022-12-12T10:31:34.754Z,2.50
2022-12-12T10:34:32.556Z,2.55
2022-12-12T10:37:18.191Z,2.55
2022-12-12T10:40:29.517Z,3.15
2022-12-12T10:43:19.950Z,2.60
2022-12-12T10:46:25.182Z,2.17
2022-12-12T10:49:19.785Z,2.20
2022-12-12T10:52:15.716Z,2.40
2022-12-12T10:55:02.044Z,2.40
2022-12-12T10:57:47.722Z,2.80
2022-12-12T11:00:42.372Z,1.80
2022-12-12T11:03:40.906Z,1.98
2022-12-12T11:06:38.327Z,2.65
2022-12-12T11:09:26.673Z,2.65
2022-12-12T11:12:15.219Z,2.33
2022-12-12T11:15:14.182Z,1.80
2022-12-12T11:18:05.772Z,1.70
2022-12-12T11:21:12.062Z,2.15
2022-12-12T11:23:59.720Z,2.17
2022-12-12T11:26:57.194Z,2.17
2022-12-12T11:29:46.717Z,2.10
2022-12-12T11:32:44.639Z,2.22
2022-12-12T11:35:45.611Z,2.00
2022-12-12T11:38:41.288Z,2.00
2022-12-12T11:41:27.164Z,1.90
2022-12-12T11:44:25.777Z,2.10
2022-12-12T11:47:26.022Z,2.42
2022-12-12T11:50:29.647Z,2.17
2022-12-12T11:53:15.132Z,2.40
2022-12-12T11:56:12.565Z,1.75
2022-12-12T11:59:03.943Z,2.20
2022-12-12T12:02:07.851Z,2.30
2022-12-12T12:05:12.668Z,2.35
2022-12-12T12:08:40.312Z,2.10
2022-12-12T12:11:47.519Z,2.58
2022-12-12T12:15:08.831Z,2.63
2022-12-12T12:18:28.316Z,2.38
2022-12-12T12:21:41.769Z,2.50
2022-12-12T12:24:47.786Z,2.50
2022-12-12T12:27:47.605Z,2.10
2022-12-12T12:31:03.105Z,2.47
2022-12-12T12:34:02.688Z,2.10
2022-12-12T12:37:06.138Z,2.75
2022-12-12T12:40:01.048Z,2.60
2022-12-12T12:43:23.546Z,2.25
2022-12-12T12:46:21.428Z,2.30
2022-12-12T12:49:53.011Z,2.53
2022-12-12T12:53:05.888Z,2.38
2022-12-12T12:55:55.208Z,2.05
2022-12-12T12:58:46.040Z,2.17
2022-12-12T13:01:48.422Z,2.20
2022-12-12T13:04:43.988Z,2.03
2022-12-12T13:07:42.658Z,1.90
2022-12-12T13:10:30.844Z,1.85
2022-12-12T13:13:38.958Z,2.50
2022-12-12T13:16:27.766Z,2.58
2022-12-12T13:19:40.902Z,2.20
2022-12-12T13:22:47.059Z,2.28
2022-12-12T13:25:53.301Z,2.47
2022-12-12T13:28:58.591Z,2.42
2022-12-12T13:31:53.868Z,1.85
2022-12-12T13:34:48.671Z,2.05
2022-12-12T13:37:36.860Z,1.70
2022-12-12T13:40:44.834Z,1.90
2022-12-12T13:43:40.370Z,1.80
2022-12-12T13:46:28.614Z,2.10
2022-12-12T13:49:25.152Z,1.65
2022-12-12T13:52:42.200Z,2.00
2022-12-12T13:55:27.656Z,2.42
2022-12-12T13:58:15.905Z,2.45
2022-12-12T14:01:32.606Z,2.22
2022-12-12T14:04:37.121Z,2.00
2022-12-12T14:07:25.586Z,1.85
2022-12-12T14:10:40.181Z,2.17
2022-12-12T14:13:50.922Z,1.88
2022-12-12T14:16:37.486Z,2.22
2022-12-12T14:19:37.922Z,1.75
2022-12-12T14:22:49.279Z,1.80
2022-12-12T14:25:37.890Z,1.90
2022-12-12T14:28:34.400Z,2.05
2022-12-12T14:31:20.487Z,1.77
2022-12-12T14:34:18.036Z,1.85
2022-12-12T14:37:31.923Z,2.10
2022-12-12T14:40:19.773Z,1.60
2022-12-12T14:43:21.707Z,1.40
2022-12-12T14:46:16.769Z,1.80
2022-12-12T14:49:05.316Z,1.75
2022-12-12T14:51:54.715Z,2.22
2022-12-12T14:54:40.373Z,2.00
2022-12-12T14:57:25.951Z,1.90
2022-12-12T15:00:19.817Z,2.00
2022-12-12T15:03:05.929Z,1.77
2022-12-12T15:06:23.822Z,1.90
2022-12-12T15:09:16.778Z,2.00
2022-12-12T15:12:11.099Z,1.67
2022-12-12T15:14:58.241Z,1.65
2022-12-12T15:17:48.275Z,1.95
2022-12-12T15:20:35.199Z,2.40
2022-12-12T15:23:21.050Z,1.98
2022-12-12T15:26:06.482Z,2.13
2022-12-12T15:28:53.383Z,1.95
2022-12-12T15:31:44.378Z,2.00
2022-12-12T15:34:31.409Z,2.05
2022-12-12T15:37:27.399Z,2.80
2022-12-12T15:40:18.338Z,1.80
2022-12-12T15:43:14.460Z,1.70
2022-12-12T15:46:06.891Z,1.83
2022-12-12T15:48:52.494Z,1.75
2022-12-12T15:51:38.010Z,1.70
2022-12-12T15:54:25.001Z,2.50
2022-12-12T15:57:16.832Z,1.80
2022-12-12T16:00:08.701Z,2.10
2022-12-12T16:03:06.577Z,1.90
2022-12-12T16:06:25.059Z,1.77
2022-12-12T16:09:10.915Z,1.63
2022-12-12T16:11:57.942Z,1.88
2022-12-12T16:14:43.723Z,1.60
2022-12-12T16:17:30.094Z,1.73
2022-12-12T16:20:15.823Z,2.38
2022-12-12T16:23:32.404Z,2.20
2022-12-12T16:26:18.247Z,1.70
2022-12-12T16:29:04.278Z,1.70
2022-12-12T16:31:49.938Z,2.30
2022-12-12T16:34:35.560Z,2.35
2022-12-12T16:37:21.173Z,2.38
2022-12-12T16:40:07.552Z,2.45
2022-12-12T16:43:06.410Z,2.85
2022-12-12T16:45:57.753Z,2.53
2022-12-12T16:48:43.640Z,3.03
2022-12-12T16:51:30.883Z,3.00
2022-12-12T16:54:17.339Z,3.30
2022-12-12T16:57:03.046Z,3.53
2022-12-12T16:59:48.788Z,2.72
2022-12-12T17:02:36.317Z,3.17
2022-12-12T17:05:24.530Z,2.92
2022-12-12T17:08:11.001Z,3.38
2022-12-12T17:11:10.456Z,2.92
2022-12-12T17:13:56.747Z,3.13
2022-12-12T17:16:42.562Z,2.97
2022-12-12T17:19:28.116Z,3.45
2022-12-12T17:22:13.587Z,2.97
2022-12-12T17:24:58.964Z,2.90
2022-12-12T17:27:45.320Z,2.53
2022-12-12T17:30:31.072Z,2.67
2022-12-12T17:33:20.099Z,2.28
2022-12-12T17:36:06.949Z,2.60
2022-12-12T17:38:53.380Z,2.70
2022-12-12T17:41:39.046Z,2.10
2022-12-12T17:44:24.579Z,2.40
2022-12-12T17:47:10.459Z,2.88
2022-12-12T17:49:56.055Z,3.03
2022-12-12T17:52:41.603Z,2.55
2022-12-12T17:55:53.746Z,2.47
2022-12-12T17:58:37.660Z,2.50
2022-12-12T18:01:27.039Z,2.33
2022-12-12T18:04:12.792Z,2.50
2022-12-12T18:06:58.115Z,2.35
2022-12-12T18:09:43.655Z,2.85
2022-12-12T18:12:31.163Z,2.40
2022-12-12T18:15:16.629Z,2.50
2022-12-12T18:18:02.230Z,2.15
2022-12-12T18:20:47.708Z,2.05
2022-12-12T18:23:33.936Z,2.28
2022-12-12T18:26:22.369Z,2.25
2022-12-12T18:29:10.912Z,2.10
2022-12-12T18:31:56.775Z,2.53
2022-12-12T18:34:43.436Z,2.70
2022-12-12T18:37:28.855Z,2.53
2022-12-12T18:40:14.692Z,1.85
2022-12-12T18:43:00.177Z,2.10
2022-12-12T18:45:45.734Z,2.10
2022-12-12T18:48:31.252Z,1.83
2022-12-12T18:51:25.133Z,2.22
2022-12-12T18:54:14.984Z,1.92
2022-12-12T18:57:01.399Z,1.48
2022-12-12T18:59:47.094Z,2.22
2022-12-12T19:02:37.290Z,2.17
2022-12-12T19:05:22.715Z,2.08
2022-12-12T19:08:08.996Z,1.90
2022-12-12T19:10:54.351Z,1.98
2022-12-12T19:13:40.046Z,2.00
2022-12-12T19:16:25.805Z,1.92
2022-12-12T19:19:12.127Z,2.13
2022-12-12T19:21:58.833Z,2.05
2022-12-12T19:24:47.954Z,2.30
2022-12-12T19:27:33.482Z,2.30
2022-12-12T19:30:19.274Z,2.30
2022-12-12T19:33:04.943Z,2.30
2022-12-12T19:35:50.330Z,2.25
2022-12-12T19:38:35.988Z,2.00
2022-12-12T19:41:22.779Z,2.30
2022-12-12T19:44:12.707Z,2.22
2022-12-12T19:46:58.507Z,2.25
2022-12-12T19:49:43.950Z,1.92
2022-12-12T19:52:29.547Z,2.00
2022-12-12T19:55:15.276Z,2.25
2022-12-12T19:58:02.804Z,2.00
2022-12-12T20:00:50.608Z,2.30
2022-12-12T20:03:36.090Z,2.05
2022-12-12T20:06:22.785Z,1.85
2022-12-12T20:09:10.601Z,2.20
2022-12-12T20:11:58.163Z,2.38
2022-12-12T20:14:43.671Z,2.05
2022-12-12T20:17:29.142Z,1.90
2022-12-12T20:20:15.024Z,1.73
2022-12-12T20:23:00.811Z,1.90
2022-12-12T20:25:46.377Z,2.08
2022-12-12T20:28:32.567Z,2.10
2022-12-12T20:31:23.283Z,2.28
2022-12-12T20:34:10.471Z,2.47
2022-12-12T20:36:56.073Z,2.15
2022-12-12T20:39:41.774Z,2.17
2022-12-12T20:42:27.456Z,2.35
2022-12-12T20:45:13.136Z,2.05
2022-12-12T20:48:03.018Z,2.47
2022-12-12T20:50:54.706Z,2.00
2022-12-12T20:53:41.586Z,1.83
2022-12-12T20:56:28.168Z,2.38
2022-12-12T20:59:14.601Z,2.40
2022-12-12T21:02:02.367Z,2.30
2022-12-12T21:04:48.008Z,2.20
2022-12-12T21:07:33.976Z,2.40
2022-12-12T21:10:19.545Z,2.20
2022-12-12T21:13:05.218Z,2.50
2022-12-12T21:15:50.665Z,2.38
2022-12-12T21:18:37.351Z,2.10
2022-12-12T21:21:25.521Z,2.13
2022-12-12T21:24:19.814Z,2.40
2022-12-12T21:27:05.558Z,1.85
2022-12-12T21:29:51.078Z,2.47
2022-12-12T21:32:36.750Z,3.38
2022-12-12T21:35:22.256Z,2.10
2022-12-12T21:38:07.794Z,2.17
2022-12-12T21:40:53.367Z,2.22
2022-12-12T21:43:39.713Z,3.17
2022-12-12T21:46:27.151Z,2.90
2022-12-12T21:49:28.116Z,2.60
2022-12-12T21:52:14.995Z,2.30
2022-12-12T21:55:00.576Z,2.13
2022-12-12T21:57:46.258Z,2.50
2022-12-12T22:00:31.759Z,2.72
2022-12-12T22:03:17.383Z,2.42
2022-12-12T22:06:17.502Z,2.30
2022-12-12T22:09:05.659Z,2.70
2022-12-12T22:11:52.481Z,2.70
2022-12-12T22:14:49.550Z,2.92
2022-12-12T22:17:35.199Z,2.83
2022-12-12T22:20:20.671Z,2.20
2022-12-12T22:23:06.311Z,2.20
2022-12-12T22:25:51.768Z,2.10
2022-12-12T22:28:37.310Z,2.03
2022-12-12T22:31:24.850Z,2.83
2022-12-12T22:34:17.050Z,2.35
2022-12-12T22:37:02.653Z,2.20
2022-12-12T22:39:48.155Z,2.30
2022-12-12T22:42:33.573Z,2.38
2022-12-12T22:45:18.960Z,2.22
2022-12-12T22:48:04.622Z,2.80
2022-12-12T22:50:52.319Z,2.55
2022-12-12T22:53:42.538Z,2.50
2022-12-12T22:56:33.160Z,2.33
2022-12-12T22:59:18.947Z,3.10
2022-12-12T23:02:04.703Z,2.35
2022-12-12T23:04:50.712Z,2.35
2022-12-12T23:07:36.822Z,2.20
2022-12-12T23:10:22.836Z,2.40
2022-12-12T23:13:08.686Z,2.47
2022-12-12T23:15:54.207Z,2.35
2022-12-12T23:18:40.859Z,2.70
2022-12-12T23:21:27.293Z,2.20
2022-12-12T23:24:22.325Z,2.78
2022-12-12T23:27:12.401Z,2.33
2022-12-12T23:29:57.894Z,2.03
2022-12-12T23:32:43.362Z,2.88
2022-12-12T23:35:28.996Z,2.42
2022-12-12T23:38:14.866Z,2.50
2022-12-12T23:41:08.660Z,2.60
2022-12-12T23:43:55.197Z,2.13
2022-12-12T23:46:41.123Z,2.47
2022-12-12T23:49:26.785Z,2.65
2022-12-12T23:52:12.428Z,2.63
2022-12-12T23:54:57.867Z,11.07
2022-12-12T23:57:43.276Z,12.23
